Weather at Riviere-St-Maurice-Aviation-Mauricie-Seaplane-Base [CLOSED]

Public forecast

Using degrees Celsius for public forecast. Weather courtesy of forecast.io.

Closest aviation weather report (METAR) to Riviere-St-Maurice-Aviation-Mauricie-Seaplane-Base

Closest report is Trois-Rivières Airport, 18.1 nm (33.5 km) S.

2024/07/22 01:00 (retrieved 1 hour ago)

CYRQ 220100Z AUTO VRB02KT 9SM CLR 19/11 A3001 RMK SLP165 DENSITY ALT 600FT

Closest aviation forecast (TAF) to Riviere-St-Maurice-Aviation-Mauricie-Seaplane-Base

Forecast is more than 6 hours old.

Closest forecast is Roberval Airport, 113.4 nm (210.0 km) N.

2024/07/21 20:00 (retrieved 6 hours ago)

TAF CYRJ 211940Z 2120/2202 31010G20KT P6SM BKN040 RMK NXT FCST BY 221200Z